sensor_id;sensor_type;location;lat;lon;timestamp;temperature;humidity
44513;DHT22;30219;50.588;9.504;2023-02-28T00:00:03;-0.70;99.90
44513;DHT22;30219;50.588;9.504;2023-02-28T00:02:44;-0.70;99.90
44513;DHT22;30219;50.588;9.504;2023-02-28T00:05:11;-0.70;99.90
44513;DHT22;30219;50.588;9.504;2023-02-28T00:07:37;-0.70;99.90
44513;DHT22;30219;50.588;9.504;2023-02-28T00:10:03;-0.80;99.90
44513;DHT22;30219;50.588;9.504;2023-02-28T00:12:29;-0.80;99.90
44513;DHT22;30219;50.588;9.504;2023-02-28T00:14:54;-0.90;99.90
44513;DHT22;30219;50.588;9.504;2023-02-28T00:17:20;-0.90;99.90
44513;DHT22;30219;50.588;9.504;2023-02-28T00:19:49;-0.90;99.90
44513;DHT22;30219;50.588;9.504;2023-02-28T00:22:15;-0.90;99.90
44513;DHT22;30219;50.588;9.504;2023-02-28T00:24:41;-0.90;99.90
44513;DHT22;30219;50.588;9.504;2023-02-28T00:27:06;-0.90;99.90
44513;DHT22;30219;50.588;9.504;2023-02-28T00:29:31;-0.80;99.90
44513;DHT22;30219;50.588;9.504;2023-02-28T00:31:57;-0.90;99.90
44513;DHT22;30219;50.588;9.504;2023-02-28T00:34:22;-0.90;99.90
44513;DHT22;30219;50.588;9.504;2023-02-28T00:36:48;-0.90;99.90
44513;DHT22;30219;50.588;9.504;2023-02-28T00:39:16;-0.80;99.90
44513;DHT22;30219;50.588;9.504;2023-02-28T00:41:42;-0.90;99.90
44513;DHT22;30219;50.588;9.504;2023-02-28T00:44:07;-0.90;99.90
44513;DHT22;30219;50.588;9.504;2023-02-28T00:46:33;-0.80;99.90
44513;DHT22;30219;50.588;9.504;2023-02-28T00:48:58;-0.80;99.90
44513;DHT22;30219;50.588;9.504;2023-02-28T00:51:24;-0.80;99.90
44513;DHT22;30219;50.588;9.504;2023-02-28T00:53:49;-0.80;99.90
44513;DHT22;30219;50.588;9.504;2023-02-28T00:56:15;-0.80;99.90
44513;DHT22;30219;50.588;9.504;2023-02-28T00:58:40;-0.80;99.90
44513;DHT22;30219;50.588;9.504;2023-02-28T01:01:05;-0.70;99.90
44513;DHT22;30219;50.588;9.504;2023-02-28T01:03:31;-0.70;99.90
44513;DHT22;30219;50.588;9.504;2023-02-28T01:05:57;-0.80;99.90
44513;DHT22;30219;50.588;9.504;2023-02-28T01:08:22;-0.80;99.90
44513;DHT22;30219;50.588;9.504;2023-02-28T01:10:48;-0.90;99.90
44513;DHT22;30219;50.588;9.504;2023-02-28T01:13:13;-0.90;99.90
44513;DHT22;30219;50.588;9.504;2023-02-28T01:15:46;-0.90;99.90
44513;DHT22;30219;50.588;9.504;2023-02-28T01:18:14;-1.00;99.90
44513;DHT22;30219;50.588;9.504;2023-02-28T01:20:39;-1.00;99.90
44513;DHT22;30219;50.588;9.504;2023-02-28T01:23:05;-1.10;99.90
44513;DHT22;30219;50.588;9.504;2023-02-28T01:25:30;-1.20;99.90
44513;DHT22;30219;50.588;9.504;2023-02-28T01:27:56;-1.20;99.90
44513;DHT22;30219;50.588;9.504;2023-02-28T01:30:21;-1.20;99.90
44513;DHT22;30219;50.588;9.504;2023-02-28T01:32:46;-1.30;99.90
44513;DHT22;30219;50.588;9.504;2023-02-28T01:35:12;-1.30;99.90
44513;DHT22;30219;50.588;9.504;2023-02-28T01:37:37;-1.20;99.90
44513;DHT22;30219;50.588;9.504;2023-02-28T01:40:03;-1.30;99.90
44513;DHT22;30219;50.588;9.504;2023-02-28T01:42:29;-1.30;99.90
44513;DHT22;30219;50.588;9.504;2023-02-28T01:47:20;-1.30;99.90
44513;DHT22;30219;50.588;9.504;2023-02-28T01:49:45;-1.40;99.90
44513;DHT22;30219;50.588;9.504;2023-02-28T01:52:11;-1.40;99.90
44513;DHT22;30219;50.588;9.504;2023-02-28T01:54:40;-1.40;99.90
44513;DHT22;30219;50.588;9.504;2023-02-28T01:57:07;-1.50;99.90
44513;DHT22;30219;50.588;9.504;2023-02-28T01:59:38;-1.50;99.90
44513;DHT22;30219;50.588;9.504;2023-02-28T02:02:11;-1.60;99.90
44513;DHT22;30219;50.588;9.504;2023-02-28T02:07:26;-1.70;99.90
44513;DHT22;30219;50.588;9.504;2023-02-28T02:10:03;-1.70;99.90
44513;DHT22;30219;50.588;9.504;2023-02-28T02:15:01;-1.90;99.90
44513;DHT22;30219;50.588;9.504;2023-02-28T02:17:36;-1.90;99.90
44513;DHT22;30219;50.588;9.504;2023-02-28T02:22:56;-2.00;99.90
44513;DHT22;30219;50.588;9.504;2023-02-28T02:27:58;-2.20;99.90
44513;DHT22;30219;50.588;9.504;2023-02-28T02:35:31;-2.10;99.90
44513;DHT22;30219;50.588;9.504;2023-02-28T02:38:08;-2.10;99.90
44513;DHT22;30219;50.588;9.504;2023-02-28T02:40:39;-2.20;99.90
44513;DHT22;30219;50.588;9.504;2023-02-28T02:43:16;-2.20;99.90
44513;DHT22;30219;50.588;9.504;2023-02-28T02:45:52;-2.10;99.90
44513;DHT22;30219;50.588;9.504;2023-02-28T02:48:20;-2.20;99.90
44513;DHT22;30219;50.588;9.504;2023-02-28T02:50:50;-2.30;99.90
44513;DHT22;30219;50.588;9.504;2023-02-28T02:53:17;-2.30;99.90
44513;DHT22;30219;50.588;9.504;2023-02-28T02:55:44;-2.40;99.90
44513;DHT22;30219;50.588;9.504;2023-02-28T02:58:13;-2.40;99.90
44513;DHT22;30219;50.588;9.504;2023-02-28T03:00:41;-2.40;99.90
44513;DHT22;30219;50.588;9.504;2023-02-28T03:03:07;-2.50;99.90
44513;DHT22;30219;50.588;9.504;2023-02-28T03:06:07;-2.50;99.90
44513;DHT22;30219;50.588;9.504;2023-02-28T03:08:26;-2.50;99.90
44513;DHT22;30219;50.588;9.504;2023-02-28T03:10:56;-2.50;99.90
44513;DHT22;30219;50.588;9.504;2023-02-28T03:18:54;-2.50;99.90
44513;DHT22;30219;50.588;9.504;2023-02-28T03:23:59;-2.40;99.90
44513;DHT22;30219;50.588;9.504;2023-02-28T03:26:27;-2.40;99.90
44513;DHT22;30219;50.588;9.504;2023-02-28T03:28:57;-2.50;99.90
44513;DHT22;30219;50.588;9.504;2023-02-28T03:31:29;-2.40;99.90
44513;DHT22;30219;50.588;9.504;2023-02-28T03:34:02;-2.40;99.90
44513;DHT22;30219;50.588;9.504;2023-02-28T03:36:30;-2.30;99.90
44513;DHT22;30219;50.588;9.504;2023-02-28T03:39:02;-2.20;99.90
44513;DHT22;30219;50.588;9.504;2023-02-28T03:41:33;-2.10;99.90
44513;DHT22;30219;50.588;9.504;2023-02-28T03:44:07;-2.00;99.90
44513;DHT22;30219;50.588;9.504;2023-02-28T03:46:35;-1.90;99.90
44513;DHT22;30219;50.588;9.504;2023-02-28T03:49:02;-1.80;99.90
44513;DHT22;30219;50.588;9.504;2023-02-28T03:51:30;-1.80;99.90
44513;DHT22;30219;50.588;9.504;2023-02-28T03:53:58;-1.70;99.90
44513;DHT22;30219;50.588;9.504;2023-02-28T03:56:33;-1.70;99.90
44513;DHT22;30219;50.588;9.504;2023-02-28T03:59:19;-1.60;99.90
44513;DHT22;30219;50.588;9.504;2023-02-28T04:01:47;-1.60;99.90
44513;DHT22;30219;50.588;9.504;2023-02-28T04:04:13;-1.60;99.90
44513;DHT22;30219;50.588;9.504;2023-02-28T04:06:39;-1.60;99.90
44513;DHT22;30219;50.588;9.504;2023-02-28T04:09:06;-1.50;99.90
44513;DHT22;30219;50.588;9.504;2023-02-28T04:13:57;-1.60;99.90
44513;DHT22;30219;50.588;9.504;2023-02-28T04:16:22;-1.60;99.90
44513;DHT22;30219;50.588;9.504;2023-02-28T04:18:48;-1.60;99.90
44513;DHT22;30219;50.588;9.504;2023-02-28T04:21:13;-1.60;99.90
44513;DHT22;30219;50.588;9.504;2023-02-28T04:23:39;-1.60;99.90
44513;DHT22;30219;50.588;9.504;2023-02-28T04:26:04;-1.60;99.90
44513;DHT22;30219;50.588;9.504;2023-02-28T04:28:31;-1.60;99.90
44513;DHT22;30219;50.588;9.504;2023-02-28T04:30:57;-1.50;99.90
44513;DHT22;30219;50.588;9.504;2023-02-28T04:33:23;-1.50;99.90
44513;DHT22;30219;50.588;9.504;2023-02-28T04:35:57;-1.50;99.90
44513;DHT22;30219;50.588;9.504;2023-02-28T04:38:23;-1.50;99.90
44513;DHT22;30219;50.588;9.504;2023-02-28T04:40:48;-1.40;99.90
44513;DHT22;30219;50.588;9.504;2023-02-28T04:43:14;-1.40;99.90
44513;DHT22;30219;50.588;9.504;2023-02-28T04:45:39;-1.30;99.90
44513;DHT22;30219;50.588;9.504;2023-02-28T04:48:04;-1.30;99.90
44513;DHT22;30219;50.588;9.504;2023-02-28T04:50:30;-1.40;99.90
44513;DHT22;30219;50.588;9.504;2023-02-28T04:52:56;-1.30;99.90
44513;DHT22;30219;50.588;9.504;2023-02-28T04:55:21;-1.30;99.90
44513;DHT22;30219;50.588;9.504;2023-02-28T04:57:47;-1.30;99.90
44513;DHT22;30219;50.588;9.504;2023-02-28T05:00:13;-1.30;99.90
44513;DHT22;30219;50.588;9.504;2023-02-28T05:02:42;-1.20;99.90
44513;DHT22;30219;50.588;9.504;2023-02-28T05:05:07;-1.20;99.90
44513;DHT22;30219;50.588;9.504;2023-02-28T05:07:33;-1.20;99.90
44513;DHT22;30219;50.588;9.504;2023-02-28T05:09:58;-1.20;99.90
44513;DHT22;30219;50.588;9.504;2023-02-28T05:12:24;-1.20;99.90
44513;DHT22;30219;50.588;9.504;2023-02-28T05:14:50;-1.20;99.90
44513;DHT22;30219;50.588;9.504;2023-02-28T05:17:15;-1.30;99.90
44513;DHT22;30219;50.588;9.504;2023-02-28T05:19:41;-1.30;99.90
44513;DHT22;30219;50.588;9.504;2023-02-28T05:22:10;-1.20;99.90
44513;DHT22;30219;50.588;9.504;2023-02-28T05:24:37;-1.30;99.90
44513;DHT22;30219;50.588;9.504;2023-02-28T05:27:03;-1.20;99.90
44513;DHT22;30219;50.588;9.504;2023-02-28T05:29:28;-1.10;99.90
44513;DHT22;30219;50.588;9.504;2023-02-28T05:31:54;-1.20;99.90
44513;DHT22;30219;50.588;9.504;2023-02-28T05:34:19;-1.20;99.90
44513;DHT22;30219;50.588;9.504;2023-02-28T05:36:45;-1.30;99.90
44513;DHT22;30219;50.588;9.504;2023-02-28T05:39:10;-1.30;99.90
44513;DHT22;30219;50.588;9.504;2023-02-28T05:41:38;-1.30;99.90
44513;DHT22;30219;50.588;9.504;2023-02-28T05:44:04;-1.30;99.90
44513;DHT22;30219;50.588;9.504;2023-02-28T05:46:29;-1.20;99.90
44513;DHT22;30219;50.588;9.504;2023-02-28T05:48:55;-1.30;99.90
44513;DHT22;30219;50.588;9.504;2023-02-28T05:51:22;-1.20;99.90
44513;DHT22;30219;50.588;9.504;2023-02-28T05:53:48;-1.30;99.90
44513;DHT22;30219;50.588;9.504;2023-02-28T05:56:14;-1.30;99.90
44513;DHT22;30219;50.588;9.504;2023-02-28T05:58:40;-1.30;99.90
44513;DHT22;30219;50.588;9.504;2023-02-28T06:04:17;-1.20;99.90
44513;DHT22;30219;50.588;9.504;2023-02-28T06:06:47;-1.30;99.90
44513;DHT22;30219;50.588;9.504;2023-02-28T06:09:13;-1.20;99.90
44513;DHT22;30219;50.588;9.504;2023-02-28T06:11:38;-1.20;99.90
44513;DHT22;30219;50.588;9.504;2023-02-28T06:14:04;-1.30;99.90
44513;DHT22;30219;50.588;9.504;2023-02-28T06:16:30;-1.40;99.90
44513;DHT22;30219;50.588;9.504;2023-02-28T06:19:00;-1.40;99.90
44513;DHT22;30219;50.588;9.504;2023-02-28T06:21:25;-1.30;99.90
44513;DHT22;30219;50.588;9.504;2023-02-28T06:23:52;-1.40;99.90
44513;DHT22;30219;50.588;9.504;2023-02-28T06:26:18;-1.40;99.90
44513;DHT22;30219;50.588;9.504;2023-02-28T06:28:44;-1.30;99.90
44513;DHT22;30219;50.588;9.504;2023-02-28T06:31:11;-1.40;99.90
44513;DHT22;30219;50.588;9.504;2023-02-28T06:33:36;-1.40;99.90
44513;DHT22;30219;50.588;9.504;2023-02-28T06:36:03;-1.40;99.90
44513;DHT22;30219;50.588;9.504;2023-02-28T06:38:28;-1.50;99.90
44513;DHT22;30219;50.588;9.504;2023-02-28T06:40:55;-1.50;99.90
44513;DHT22;30219;50.588;9.504;2023-02-28T06:43:20;-1.50;99.90
44513;DHT22;30219;50.588;9.504;2023-02-28T06:45:46;-1.50;99.90
44513;DHT22;30219;50.588;9.504;2023-02-28T06:48:11;-1.50;99.90
44513;DHT22;30219;50.588;9.504;2023-02-28T06:50:37;-1.30;99.90
44513;DHT22;30219;50.588;9.504;2023-02-28T06:53:03;-1.20;99.90
44513;DHT22;30219;50.588;9.504;2023-02-28T06:55:28;-0.90;99.90
44513;DHT22;30219;50.588;9.504;2023-02-28T06:57:54;-0.40;99.90
44513;DHT22;30219;50.588;9.504;2023-02-28T07:00:20;0.10;99.90
44513;DHT22;30219;50.588;9.504;2023-02-28T07:02:45;0.40;99.90
44513;DHT22;30219;50.588;9.504;2023-02-28T07:05:12;0.80;99.90
44513;DHT22;30219;50.588;9.504;2023-02-28T07:07:37;0.90;99.90
44513;DHT22;30219;50.588;9.504;2023-02-28T07:10:05;1.20;99.90
44513;DHT22;30219;50.588;9.504;2023-02-28T07:12:31;1.50;99.90
44513;DHT22;30219;50.588;9.504;2023-02-28T07:14:56;1.80;99.90
44513;DHT22;30219;50.588;9.504;2023-02-28T07:17:22;2.00;99.90
44513;DHT22;30219;50.588;9.504;2023-02-28T07:19:47;2.20;99.90
44513;DHT22;30219;50.588;9.504;2023-02-28T07:22:13;2.50;99.90
44513;DHT22;30219;50.588;9.504;2023-02-28T07:24:38;2.80;99.90
44513;DHT22;30219;50.588;9.504;2023-02-28T07:27:04;3.20;99.90
44513;DHT22;30219;50.588;9.504;2023-02-28T07:29:29;3.40;99.90
44513;DHT22;30219;50.588;9.504;2023-02-28T07:31:55;3.50;99.90
44513;DHT22;30219;50.588;9.504;2023-02-28T07:34:20;3.80;99.90
44513;DHT22;30219;50.588;9.504;2023-02-28T07:36:46;4.00;99.90
44513;DHT22;30219;50.588;9.504;2023-02-28T07:39:11;4.00;99.90
44513;DHT22;30219;50.588;9.504;2023-02-28T07:41:37;4.40;99.90
44513;DHT22;30219;50.588;9.504;2023-02-28T07:44:11;4.40;99.90
44513;DHT22;30219;50.588;9.504;2023-02-28T07:46:37;4.60;99.70
44513;DHT22;30219;50.588;9.504;2023-02-28T07:49:02;4.70;99.50
44513;DHT22;30219;50.588;9.504;2023-02-28T07:51:28;4.80;98.60
44513;DHT22;30219;50.588;9.504;2023-02-28T07:53:54;4.70;98.50
44513;DHT22;30219;50.588;9.504;2023-02-28T07:56:19;4.70;98.50
44513;DHT22;30219;50.588;9.504;2023-02-28T07:58:45;4.90;98.10
44513;DHT22;30219;50.588;9.504;2023-02-28T08:01:10;5.30;96.80
44513;DHT22;30219;50.588;9.504;2023-02-28T08:03:36;5.10;96.00
44513;DHT22;30219;50.588;9.504;2023-02-28T08:06:03;5.10;95.90
44513;DHT22;30219;50.588;9.504;2023-02-28T08:08:29;5.10;95.90
44513;DHT22;30219;50.588;9.504;2023-02-28T08:11:00;5.00;94.80
44513;DHT22;30219;50.588;9.504;2023-02-28T08:13:26;5.00;95.30
44513;DHT22;30219;50.588;9.504;2023-02-28T08:15:53;4.90;93.70
44513;DHT22;30219;50.588;9.504;2023-02-28T08:18:19;4.80;94.50
44513;DHT22;30219;50.588;9.504;2023-02-28T08:20:44;4.20;94.00
44513;DHT22;30219;50.588;9.504;2023-02-28T08:23:10;4.40;94.30
44513;DHT22;30219;50.588;9.504;2023-02-28T08:25:35;4.90;94.20
44513;DHT22;30219;50.588;9.504;2023-02-28T08:28:00;4.80;93.70
44513;DHT22;30219;50.588;9.504;2023-02-28T08:30:26;4.80;93.50
44513;DHT22;30219;50.588;9.504;2023-02-28T08:32:51;5.00;93.40
44513;DHT22;30219;50.588;9.504;2023-02-28T08:35:17;5.20;93.30
44513;DHT22;30219;50.588;9.504;2023-02-28T08:37:42;5.10;92.50
44513;DHT22;30219;50.588;9.504;2023-02-28T08:40:08;4.70;92.90
44513;DHT22;30219;50.588;9.504;2023-02-28T08:42:34;4.80;92.80
44513;DHT22;30219;50.588;9.504;2023-02-28T08:44:59;4.80;93.10
44513;DHT22;30219;50.588;9.504;2023-02-28T08:47:25;4.50;92.60
44513;DHT22;30219;50.588;9.504;2023-02-28T08:49:51;4.70;92.70
44513;DHT22;30219;50.588;9.504;2023-02-28T08:52:16;4.80;92.70
44513;DHT22;30219;50.588;9.504;2023-02-28T08:54:42;5.20;92.10
44513;DHT22;30219;50.588;9.504;2023-02-28T08:57:07;5.40;91.50
44513;DHT22;30219;50.588;9.504;2023-02-28T08:59:33;5.60;91.10
44513;DHT22;30219;50.588;9.504;2023-02-28T09:01:58;5.30;90.70
44513;DHT22;30219;50.588;9.504;2023-02-28T09:04:23;5.00;91.20
44513;DHT22;30219;50.588;9.504;2023-02-28T09:06:49;5.10;90.60
44513;DHT22;30219;50.588;9.504;2023-02-28T09:09:15;5.00;90.10
44513;DHT22;30219;50.588;9.504;2023-02-28T09:11:41;5.00;90.40
44513;DHT22;30219;50.588;9.504;2023-02-28T09:14:07;5.10;91.00
44513;DHT22;30219;50.588;9.504;2023-02-28T09:16:32;5.30;90.30
44513;DHT22;30219;50.588;9.504;2023-02-28T09:18:58;5.40;90.00
44513;DHT22;30219;50.588;9.504;2023-02-28T09:21:23;5.10;89.40
44513;DHT22;30219;50.588;9.504;2023-02-28T09:23:50;5.20;88.40
44513;DHT22;30219;50.588;9.504;2023-02-28T09:26:16;5.40;90.30
44513;DHT22;30219;50.588;9.504;2023-02-28T09:28:42;5.40;90.00
44513;DHT22;30219;50.588;9.504;2023-02-28T09:31:15;5.30;87.30
44513;DHT22;30219;50.588;9.504;2023-02-28T09:33:42;4.50;86.90
44513;DHT22;30219;50.588;9.504;2023-02-28T09:36:07;4.10;87.40
44513;DHT22;30219;50.588;9.504;2023-02-28T09:38:33;3.90;90.00
44513;DHT22;30219;50.588;9.504;2023-02-28T09:41:01;4.10;89.60
44513;DHT22;30219;50.588;9.504;2023-02-28T09:43:28;4.60;90.00
44513;DHT22;30219;50.588;9.504;2023-02-28T09:48:25;4.60;89.00
44513;DHT22;30219;50.588;9.504;2023-02-28T09:50:52;4.90;86.70
44513;DHT22;30219;50.588;9.504;2023-02-28T09:53:28;5.10;87.30
44513;DHT22;30219;50.588;9.504;2023-02-28T09:55:59;4.90;87.20
44513;DHT22;30219;50.588;9.504;2023-02-28T09:58:32;4.00;87.90
44513;DHT22;30219;50.588;9.504;2023-02-28T10:01:21;3.80;90.00
44513;DHT22;30219;50.588;9.504;2023-02-28T10:04:08;3.70;90.20
44513;DHT22;30219;50.588;9.504;2023-02-28T10:06:39;3.30;90.90
44513;DHT22;30219;50.588;9.504;2023-02-28T10:09:17;2.60;90.00
44513;DHT22;30219;50.588;9.504;2023-02-28T10:11:45;2.40;91.40
44513;DHT22;30219;50.588;9.504;2023-02-28T10:14:15;2.20;91.70
44513;DHT22;30219;50.588;9.504;2023-02-28T10:16:43;2.00;92.10
44513;DHT22;30219;50.588;9.504;2023-02-28T10:21:54;1.80;92.40
44513;DHT22;30219;50.588;9.504;2023-02-28T10:26:52;1.90;92.60
44513;DHT22;30219;50.588;9.504;2023-02-28T10:29:22;2.20;92.90
44513;DHT22;30219;50.588;9.504;2023-02-28T10:31:47;2.50;92.60
44513;DHT22;30219;50.588;9.504;2023-02-28T10:34:13;2.80;92.40
44513;DHT22;30219;50.588;9.504;2023-02-28T10:36:39;2.70;91.50
44513;DHT22;30219;50.588;9.504;2023-02-28T10:41:49;2.70;92.20
44513;DHT22;30219;50.588;9.504;2023-02-28T10:44:20;2.50;92.30
44513;DHT22;30219;50.588;9.504;2023-02-28T10:46:45;2.70;92.90
44513;DHT22;30219;50.588;9.504;2023-02-28T10:49:17;3.10;92.60
44513;DHT22;30219;50.588;9.504;2023-02-28T10:51:45;3.20;91.60
44513;DHT22;30219;50.588;9.504;2023-02-28T10:54:14;3.30;91.50
44513;DHT22;30219;50.588;9.504;2023-02-28T10:56:40;3.20;91.40
44513;DHT22;30219;50.588;9.504;2023-02-28T11:04:39;3.00;92.10
44513;DHT22;30219;50.588;9.504;2023-02-28T11:12:01;3.20;93.20
44513;DHT22;30219;50.588;9.504;2023-02-28T11:14:27;3.30;92.50
44513;DHT22;30219;50.588;9.504;2023-02-28T11:16:53;3.20;91.90
44513;DHT22;30219;50.588;9.504;2023-02-28T11:19:20;3.00;92.50
44513;DHT22;30219;50.588;9.504;2023-02-28T11:21:49;2.90;92.50
44513;DHT22;30219;50.588;9.504;2023-02-28T11:26:53;2.80;92.70
44513;DHT22;30219;50.588;9.504;2023-02-28T11:29:24;2.80;92.70
44513;DHT22;30219;50.588;9.504;2023-02-28T11:32:04;2.90;93.50
44513;DHT22;30219;50.588;9.504;2023-02-28T11:34:30;2.90;93.70
44513;DHT22;30219;50.588;9.504;2023-02-28T11:36:57;2.90;93.00
44513;DHT22;30219;50.588;9.504;2023-02-28T11:39:23;2.90;93.80
44513;DHT22;30219;50.588;9.504;2023-02-28T11:46:41;2.80;93.50
44513;DHT22;30219;50.588;9.504;2023-02-28T11:52:06;2.80;94.10
44513;DHT22;30219;50.588;9.504;2023-02-28T11:59:47;2.70;94.00
44513;DHT22;30219;50.588;9.504;2023-02-28T12:02:23;2.60;93.70
44513;DHT22;30219;50.588;9.504;2023-02-28T12:05:09;2.40;93.30
44513;DHT22;30219;50.588;9.504;2023-02-28T12:07:45;2.50;93.70
44513;DHT22;30219;50.588;9.504;2023-02-28T12:12:40;3.00;93.50
44513;DHT22;30219;50.588;9.504;2023-02-28T12:20:16;2.90;92.80
44513;DHT22;30219;50.588;9.504;2023-02-28T12:22:47;3.10;93.60
44513;DHT22;30219;50.588;9.504;2023-02-28T12:27:46;3.50;92.80
44513;DHT22;30219;50.588;9.504;2023-02-28T12:32:44;3.70;92.80
44513;DHT22;30219;50.588;9.504;2023-02-28T12:35:12;3.60;92.40
44513;DHT22;30219;50.588;9.504;2023-02-28T12:37:45;3.70;93.00
44513;DHT22;30219;50.588;9.504;2023-02-28T12:40:13;3.50;92.60
44513;DHT22;30219;50.588;9.504;2023-02-28T12:42:42;3.40;93.30
44513;DHT22;30219;50.588;9.504;2023-02-28T12:45:34;3.40;93.40
44513;DHT22;30219;50.588;9.504;2023-02-28T12:48:04;3.90;92.80
44513;DHT22;30219;50.588;9.504;2023-02-28T12:50:31;3.80;92.10
44513;DHT22;30219;50.588;9.504;2023-02-28T12:55:43;3.80;92.90
44513;DHT22;30219;50.588;9.504;2023-02-28T12:58:21;3.90;93.10
44513;DHT22;30219;50.588;9.504;2023-02-28T13:03:32;4.20;92.60
44513;DHT22;30219;50.588;9.504;2023-02-28T13:11:31;5.00;91.90
44513;DHT22;30219;50.588;9.504;2023-02-28T13:14:01;5.20;91.20
44513;DHT22;30219;50.588;9.504;2023-02-28T13:16:27;5.10;90.70
44513;DHT22;30219;50.588;9.504;2023-02-28T13:18:53;5.20;90.90
44513;DHT22;30219;50.588;9.504;2023-02-28T13:21:33;5.60;91.20
44513;DHT22;30219;50.588;9.504;2023-02-28T13:24:07;5.70;90.50
44513;DHT22;30219;50.588;9.504;2023-02-28T13:29:04;5.20;90.60
44513;DHT22;30219;50.588;9.504;2023-02-28T13:47:24;5.60;88.80
44513;DHT22;30219;50.588;9.504;2023-02-28T13:49:52;5.60;89.10
44513;DHT22;30219;50.588;9.504;2023-02-28T13:52:20;5.60;89.20
44513;DHT22;30219;50.588;9.504;2023-02-28T13:55:09;5.60;89.80
44513;DHT22;30219;50.588;9.504;2023-02-28T14:05:22;6.00;90.10
44513;DHT22;30219;50.588;9.504;2023-02-28T14:07:54;5.90;89.20
44513;DHT22;30219;50.588;9.504;2023-02-28T14:12:51;5.50;90.00
44513;DHT22;30219;50.588;9.504;2023-02-28T14:17:58;5.40;88.90
44513;DHT22;30219;50.588;9.504;2023-02-28T14:20:27;5.40;90.40
44513;DHT22;30219;50.588;9.504;2023-02-28T14:35:40;5.70;90.70
44513;DHT22;30219;50.588;9.504;2023-02-28T14:38:14;5.90;90.40
44513;DHT22;30219;50.588;9.504;2023-02-28T14:40:42;6.00;90.00
44513;DHT22;30219;50.588;9.504;2023-02-28T14:43:18;5.80;90.10
44513;DHT22;30219;50.588;9.504;2023-02-28T14:45:48;5.70;90.80
44513;DHT22;30219;50.588;9.504;2023-02-28T14:48:15;5.60;90.70
44513;DHT22;30219;50.588;9.504;2023-02-28T14:50:41;5.40;90.70
44513;DHT22;30219;50.588;9.504;2023-02-28T14:53:15;5.40;91.00
44513;DHT22;30219;50.588;9.504;2023-02-28T14:55:44;5.40;90.70
44513;DHT22;30219;50.588;9.504;2023-02-28T14:58:22;5.40;90.70
44513;DHT22;30219;50.588;9.504;2023-02-28T15:00:48;5.30;91.40
44513;DHT22;30219;50.588;9.504;2023-02-28T15:03:33;5.30;91.00
44513;DHT22;30219;50.588;9.504;2023-02-28T15:06:00;5.20;90.70
44513;DHT22;30219;50.588;9.504;2023-02-28T15:08:27;5.30;91.60
44513;DHT22;30219;50.588;9.504;2023-02-28T15:13:52;5.30;90.80
44513;DHT22;30219;50.588;9.504;2023-02-28T15:16:30;5.10;91.40
44513;DHT22;30219;50.588;9.504;2023-02-28T15:21:25;5.30;91.40
44513;DHT22;30219;50.588;9.504;2023-02-28T15:23:55;5.20;91.70
44513;DHT22;30219;50.588;9.504;2023-02-28T15:26:23;5.20;91.40
44513;DHT22;30219;50.588;9.504;2023-02-28T15:28:51;5.30;92.00
44513;DHT22;30219;50.588;9.504;2023-02-28T15:31:23;5.10;91.40
44513;DHT22;30219;50.588;9.504;2023-02-28T15:33:55;5.00;91.50
44513;DHT22;30219;50.588;9.504;2023-02-28T15:36:20;4.80;91.70
44513;DHT22;30219;50.588;9.504;2023-02-28T15:38:51;4.80;92.00
44513;DHT22;30219;50.588;9.504;2023-02-28T15:46:35;4.70;92.50
44513;DHT22;30219;50.588;9.504;2023-02-28T15:49:01;4.70;92.70
44513;DHT22;30219;50.588;9.504;2023-02-28T15:51:33;4.80;92.50
44513;DHT22;30219;50.588;9.504;2023-02-28T15:58:52;5.10;92.80
44513;DHT22;30219;50.588;9.504;2023-02-28T16:01:29;4.90;92.20
44513;DHT22;30219;50.588;9.504;2023-02-28T16:03:57;4.80;92.70
44513;DHT22;30219;50.588;9.504;2023-02-28T16:08:51;4.60;92.90
44513;DHT22;30219;50.588;9.504;2023-02-28T16:11:18;4.60;93.10
44513;DHT22;30219;50.588;9.504;2023-02-28T16:13:45;4.50;93.10
44513;DHT22;30219;50.588;9.504;2023-02-28T16:16:14;4.40;93.50
44513;DHT22;30219;50.588;9.504;2023-02-28T16:18:40;4.40;93.70
44513;DHT22;30219;50.588;9.504;2023-02-28T16:21:05;4.20;93.60
44513;DHT22;30219;50.588;9.504;2023-02-28T16:23:31;4.10;93.80
44513;DHT22;30219;50.588;9.504;2023-02-28T16:25:56;4.00;94.20
44513;DHT22;30219;50.588;9.504;2023-02-28T16:28:25;3.90;94.40
44513;DHT22;30219;50.588;9.504;2023-02-28T16:30:55;3.80;94.30
44513;DHT22;30219;50.588;9.504;2023-02-28T16:33:20;3.70;94.70
44513;DHT22;30219;50.588;9.504;2023-02-28T16:35:45;3.60;95.10
44513;DHT22;30219;50.588;9.504;2023-02-28T16:38:11;3.60;94.90
44513;DHT22;30219;50.588;9.504;2023-02-28T16:40:36;3.50;95.10
44513;DHT22;30219;50.588;9.504;2023-02-28T16:43:07;3.50;95.40
44513;DHT22;30219;50.588;9.504;2023-02-28T16:45:33;3.30;95.40
44513;DHT22;30219;50.588;9.504;2023-02-28T16:47:59;3.20;95.80
44513;DHT22;30219;50.588;9.504;2023-02-28T16:50:29;3.20;95.70
44513;DHT22;30219;50.588;9.504;2023-02-28T16:52:55;3.10;96.40
44513;DHT22;30219;50.588;9.504;2023-02-28T16:55:21;2.90;96.30
44513;DHT22;30219;50.588;9.504;2023-02-28T16:57:53;2.80;96.60
44513;DHT22;30219;50.588;9.504;2023-02-28T17:00:19;2.80;96.70
44513;DHT22;30219;50.588;9.504;2023-02-28T17:02:45;2.70;96.90
44513;DHT22;30219;50.588;9.504;2023-02-28T17:05:11;2.70;96.80
44513;DHT22;30219;50.588;9.504;2023-02-28T17:07:37;2.60;97.10
44513;DHT22;30219;50.588;9.504;2023-02-28T17:10:08;2.50;97.30
44513;DHT22;30219;50.588;9.504;2023-02-28T17:12:36;2.50;97.40
44513;DHT22;30219;50.588;9.504;2023-02-28T17:15:01;2.50;97.60
44513;DHT22;30219;50.588;9.504;2023-02-28T17:17:27;2.40;97.80
44513;DHT22;30219;50.588;9.504;2023-02-28T17:19:53;2.40;98.00
44513;DHT22;30219;50.588;9.504;2023-02-28T17:22:19;2.30;97.80
44513;DHT22;30219;50.588;9.504;2023-02-28T17:24:44;2.30;97.90
44513;DHT22;30219;50.588;9.504;2023-02-28T17:27:11;2.10;98.30
44513;DHT22;30219;50.588;9.504;2023-02-28T17:29:37;2.00;98.50
44513;DHT22;30219;50.588;9.504;2023-02-28T17:32:02;2.10;98.70
44513;DHT22;30219;50.588;9.504;2023-02-28T17:34:28;2.00;98.90
44513;DHT22;30219;50.588;9.504;2023-02-28T17:36:53;1.90;99.00
44513;DHT22;30219;50.588;9.504;2023-02-28T17:39:19;1.90;99.00
44513;DHT22;30219;50.588;9.504;2023-02-28T17:41:50;1.90;99.30
44513;DHT22;30219;50.588;9.504;2023-02-28T17:44:15;1.90;99.20
44513;DHT22;30219;50.588;9.504;2023-02-28T17:46:41;1.80;99.30
44513;DHT22;30219;50.588;9.504;2023-02-28T17:49:08;1.80;99.60
44513;DHT22;30219;50.588;9.504;2023-02-28T17:51:33;1.60;99.90
44513;DHT22;30219;50.588;9.504;2023-02-28T17:53:59;1.70;99.90
44513;DHT22;30219;50.588;9.504;2023-02-28T17:56:25;1.50;99.90
44513;DHT22;30219;50.588;9.504;2023-02-28T17:58:51;1.50;99.90
44513;DHT22;30219;50.588;9.504;2023-02-28T18:01:17;1.50;99.90
44513;DHT22;30219;50.588;9.504;2023-02-28T18:03:43;1.40;99.90
44513;DHT22;30219;50.588;9.504;2023-02-28T18:06:11;1.50;99.90
44513;DHT22;30219;50.588;9.504;2023-02-28T18:08:39;1.50;99.90
44513;DHT22;30219;50.588;9.504;2023-02-28T18:11:04;1.40;99.90
44513;DHT22;30219;50.588;9.504;2023-02-28T18:13:30;1.30;99.90
44513;DHT22;30219;50.588;9.504;2023-02-28T18:15:55;1.20;99.90